Track Тимофеева Кристина

Time Latitude Longitude Accuracy (66% radius in meters) Altitude (meters) Speed (km/hour) Bearing (degrees) Battery (%) GPS flag
08:24:55 60.370942 29.556299 6 78 0 307.84783935547 65 1 delete
08:24:42 60.370941 29.556288 6 80 0 10.362406730652 65 1 delete
08:24:29 60.370939 29.556347 6 78 0 10.362406730652 65 1 delete
08:24:17 60.370947 29.556401 6 70 0 10.362406730652 65 1 delete
08:24:04 60.370948 29.556379 6 69 0 10.362406730652 65 1 delete
08:24:03 60.370946 29.556361 6 72 0 10.362406730652 65 1 delete
08:23:52 60.370969 29.556255 6 83 0 10.362406730652 65 1 delete
08:23:40 60.370982 29.556260 6 84 0 10.362406730652 65 1 delete
08:23:28 60.370972 29.556264 4 81 0 10.362406730652 65 1 delete
08:23:21 60.370955 29.556265 4 90 0 10.362406730652 65 1 delete
08:23:15 60.370911 29.556247 4 83 0 10.362406730652 65 1 delete
08:23:03 60.370908 29.556229 6 85 0 10.362406730652 65 1 delete
08:22:50 60.370930 29.556290 12 76 0 10.362406730652 65 1 delete
08:22:48 60.370934 29.556305 6 75 0 10.362406730652 65 1 delete
08:22:38 60.370946 29.556362 6 68 0 266.89358520508 65 1 delete
08:22:26 60.370968 29.556390 8 85 0 266.89358520508 65 1 delete
08:22:14 60.370958 29.556426 6 75 0 222.5906829834 65 1 delete
08:22:07 60.370950 29.556397 6 68 0 222.5906829834 65 1 delete
08:22:02 60.370941 29.556354 6 70 0 222.5906829834 65 1 delete
08:21:49 60.370938 29.556367 6 78 0 258.98291015625 65 1 delete
08:21:37 60.370909 29.556393 16 81 0 244.20532226562 65 1 delete
08:21:25 60.370906 29.556338 8 81 0.38910394906998 261.8645324707 65 1 delete
08:21:23 60.370917 29.556335 16 81 0.3865992128849 228.53414916992 65 1 delete
08:21:13 60.370958 29.556328 8 77 0 248.93357849121 65 1 delete
08:21:06 60.370965 29.556317 8 90 0.081496730446815 250.22872924805 65 1 delete
08:21:01 60.370968 29.556383 6 86 0 319.72821044922 65 1 delete
08:20:54 60.370974 29.556412 16 77 0 319.72821044922 65 1 delete
08:20:48 60.370999 29.556367 12 73 0 319.72821044922 65 1 delete
08:20:36 60.371016 29.556359 8 74 0.35503017902374 3.17436170578 65 1 delete
08:20:24 60.370993 29.556348 6 62 0.36847513914108 241.23777770996 65 1 delete
08:20:11 60.371013 29.556340 12 71 0 202.43168640137 65 1 delete
08:20:07 60.371004 29.556337 8 77 0 202.43168640137 65 1 delete
08:20:02 60.370956 29.556325 8 72 0 202.43168640137 65 1 delete
08:19:59 60.370916 29.556319 8 64 0 202.43168640137 65 1 delete
08:19:56 60.370902 29.556320 8 61 0.42059525847435 202.43168640137 65 1 delete
08:19:47 60.370919 29.556307 6 75 0 279.13940429688 65 1 delete
08:19:41 60.370949 29.556311 8 69 0 279.13940429688 65 1 delete
08:19:34 60.370995 29.556362 6 67 0 279.13940429688 65 1 delete
08:19:22 60.371006 29.556373 4 69 0 279.13940429688 65 1 delete
08:19:10 60.370998 29.556388 6 68 0 279.13940429688 65 1 delete
08:18:57 60.371010 29.556377 6 69 0 211.87742614746 65 1 delete
08:18:45 60.371029 29.556350 6 75 0 143.10481262207 65 1 delete
08:18:33 60.371029 29.556321 4 67 0 143.10481262207 65 1 delete
08:18:21 60.371012 29.556353 4 67 0 143.10481262207 65 1 delete
08:18:08 60.370998 29.556339 4 70 0 143.10481262207 65 1 delete
08:17:56 60.371019 29.556328 4 73 0 143.10481262207 65 1 delete
08:17:44 60.371023 29.556327 6 69 0 143.10481262207 65 1 delete
08:17:32 60.371031 29.556323 4 70 0 143.10481262207 65 1 delete
08:17:19 60.371008 29.556322 4 76 0 143.10481262207 65 1 delete
08:17:06 60.370999 29.556340 4 74 0 143.10481262207 65 1 delete